sensor_id;sensor_type;location;lat;lon;timestamp;P1;durP1;ratioP1;P2;durP2;ratioP2
11817;SDS011;5966;52.402;5.322;2023-02-28T00:00:40;2.77;;;1.13;;
11817;SDS011;5966;52.402;5.322;2023-02-28T00:03:21;3.97;;;1.37;;
11817;SDS011;5966;52.402;5.322;2023-02-28T00:05:50;4.20;;;1.73;;
11817;SDS011;5966;52.402;5.322;2023-02-28T00:08:22;2.83;;;1.50;;
11817;SDS011;5966;52.402;5.322;2023-02-28T00:11:08;2.13;;;1.10;;
11817;SDS011;5966;52.402;5.322;2023-02-28T00:13:39;2.37;;;1.37;;
11817;SDS011;5966;52.402;5.322;2023-02-28T00:16:14;4.17;;;1.77;;
11817;SDS011;5966;52.402;5.322;2023-02-28T00:18:48;5.13;;;1.50;;
11817;SDS011;5966;52.402;5.322;2023-02-28T00:21:19;2.80;;;1.40;;
11817;SDS011;5966;52.402;5.322;2023-02-28T00:23:49;2.67;;;1.93;;
11817;SDS011;5966;52.402;5.322;2023-02-28T00:26:21;2.83;;;1.83;;
11817;SDS011;5966;52.402;5.322;2023-02-28T00:28:51;3.83;;;1.50;;
11817;SDS011;5966;52.402;5.322;2023-02-28T00:31:27;4.67;;;1.90;;
11817;SDS011;5966;52.402;5.322;2023-02-28T00:33:55;5.10;;;1.80;;
11817;SDS011;5966;52.402;5.322;2023-02-28T00:36:25;2.00;;;1.50;;
11817;SDS011;5966;52.402;5.322;2023-02-28T00:38:53;3.30;;;2.43;;
11817;SDS011;5966;52.402;5.322;2023-02-28T00:41:24;2.50;;;1.50;;
11817;SDS011;5966;52.402;5.322;2023-02-28T00:43:54;3.27;;;1.80;;
11817;SDS011;5966;52.402;5.322;2023-02-28T00:46:23;1.87;;;1.43;;
11817;SDS011;5966;52.402;5.322;2023-02-28T00:48:55;2.33;;;1.50;;
11817;SDS011;5966;52.402;5.322;2023-02-28T00:51:23;4.60;;;1.60;;
11817;SDS011;5966;52.402;5.322;2023-02-28T00:53:53;5.23;;;1.80;;
11817;SDS011;5966;52.402;5.322;2023-02-28T00:56:25;1.97;;;1.50;;
11817;SDS011;5966;52.402;5.322;2023-02-28T00:58:57;4.97;;;1.70;;
11817;SDS011;5966;52.402;5.322;2023-02-28T01:01:24;4.10;;;1.57;;
11817;SDS011;5966;52.402;5.322;2023-02-28T01:03:57;3.37;;;1.80;;
11817;SDS011;5966;52.402;5.322;2023-02-28T01:06:25;3.43;;;1.70;;
11817;SDS011;5966;52.402;5.322;2023-02-28T01:08:56;1.67;;;1.57;;
11817;SDS011;5966;52.402;5.322;2023-02-28T01:11:29;4.83;;;1.70;;
11817;SDS011;5966;52.402;5.322;2023-02-28T01:14:01;2.43;;;1.70;;
11817;SDS011;5966;52.402;5.322;2023-02-28T01:16:32;3.53;;;1.60;;
11817;SDS011;5966;52.402;5.322;2023-02-28T01:19:00;4.33;;;1.77;;
11817;SDS011;5966;52.402;5.322;2023-02-28T01:21:29;4.93;;;1.83;;
11817;SDS011;5966;52.402;5.322;2023-02-28T01:24:00;2.67;;;1.67;;
11817;SDS011;5966;52.402;5.322;2023-02-28T01:26:35;1.70;;;1.50;;
11817;SDS011;5966;52.402;5.322;2023-02-28T01:29:05;4.83;;;2.00;;
11817;SDS011;5966;52.402;5.322;2023-02-28T01:31:33;4.43;;;1.60;;
11817;SDS011;5966;52.402;5.322;2023-02-28T01:34:02;3.23;;;1.80;;
11817;SDS011;5966;52.402;5.322;2023-02-28T01:36:31;2.23;;;1.60;;
11817;SDS011;5966;52.402;5.322;2023-02-28T01:39:02;4.77;;;1.90;;
11817;SDS011;5966;52.402;5.322;2023-02-28T01:41:46;3.10;;;1.93;;
11817;SDS011;5966;52.402;5.322;2023-02-28T01:47:22;3.73;;;1.70;;
11817;SDS011;5966;52.402;5.322;2023-02-28T01:49:53;3.00;;;1.60;;
11817;SDS011;5966;52.402;5.322;2023-02-28T01:52:23;4.33;;;1.90;;
11817;SDS011;5966;52.402;5.322;2023-02-28T01:54:53;6.17;;;1.90;;
11817;SDS011;5966;52.402;5.322;2023-02-28T01:57:30;3.03;;;1.63;;
11817;SDS011;5966;52.402;5.322;2023-02-28T02:00:06;2.63;;;1.53;;
11817;SDS011;5966;52.402;5.322;2023-02-28T02:02:36;4.23;;;1.60;;
11817;SDS011;5966;52.402;5.322;2023-02-28T02:05:05;3.33;;;2.00;;
11817;SDS011;5966;52.402;5.322;2023-02-28T02:07:38;4.77;;;1.70;;
11817;SDS011;5966;52.402;5.322;2023-02-28T02:10:12;2.63;;;1.80;;
11817;SDS011;5966;52.402;5.322;2023-02-28T02:12:58;3.70;;;1.73;;
11817;SDS011;5966;52.402;5.322;2023-02-28T02:16:07;4.83;;;2.07;;
11817;SDS011;5966;52.402;5.322;2023-02-28T02:18:47;3.30;;;2.00;;
11817;SDS011;5966;52.402;5.322;2023-02-28T02:27:42;4.20;;;1.60;;
11817;SDS011;5966;52.402;5.322;2023-02-28T02:36:47;5.43;;;1.90;;
11817;SDS011;5966;52.402;5.322;2023-02-28T02:39:23;4.10;;;1.90;;
11817;SDS011;5966;52.402;5.322;2023-02-28T02:42:04;3.80;;;1.80;;
11817;SDS011;5966;52.402;5.322;2023-02-28T02:44:46;4.37;;;2.13;;
11817;SDS011;5966;52.402;5.322;2023-02-28T02:47:21;5.00;;;1.90;;
11817;SDS011;5966;52.402;5.322;2023-02-28T02:49:55;4.90;;;1.90;;
11817;SDS011;5966;52.402;5.322;2023-02-28T02:52:29;6.57;;;2.00;;
11817;SDS011;5966;52.402;5.322;2023-02-28T02:55:03;6.83;;;2.77;;
11817;SDS011;5966;52.402;5.322;2023-02-28T02:57:35;5.00;;;2.83;;
11817;SDS011;5966;52.402;5.322;2023-02-28T03:00:08;3.43;;;1.90;;
11817;SDS011;5966;52.402;5.322;2023-02-28T03:02:38;3.73;;;2.10;;
11817;SDS011;5966;52.402;5.322;2023-02-28T03:05:09;4.87;;;2.10;;
11817;SDS011;5966;52.402;5.322;2023-02-28T03:07:46;3.23;;;1.60;;
11817;SDS011;5966;52.402;5.322;2023-02-28T03:10:28;2.03;;;1.63;;
11817;SDS011;5966;52.402;5.322;2023-02-28T03:13:09;4.80;;;1.90;;
11817;SDS011;5966;52.402;5.322;2023-02-28T03:15:50;3.40;;;1.90;;
11817;SDS011;5966;52.402;5.322;2023-02-28T03:18:42;5.20;;;2.20;;
11817;SDS011;5966;52.402;5.322;2023-02-28T03:21:23;2.47;;;1.80;;
11817;SDS011;5966;52.402;5.322;2023-02-28T03:23:59;3.27;;;2.13;;
11817;SDS011;5966;52.402;5.322;2023-02-28T03:26:31;5.47;;;2.33;;
11817;SDS011;5966;52.402;5.322;2023-02-28T03:29:08;3.93;;;2.23;;
11817;SDS011;5966;52.402;5.322;2023-02-28T03:31:44;6.80;;;2.50;;
11817;SDS011;5966;52.402;5.322;2023-02-28T03:34:17;3.07;;;2.03;;
11817;SDS011;5966;52.402;5.322;2023-02-28T03:36:50;3.33;;;1.80;;
11817;SDS011;5966;52.402;5.322;2023-02-28T03:39:27;3.50;;;2.17;;
11817;SDS011;5966;52.402;5.322;2023-02-28T03:42:01;4.60;;;2.30;;
11817;SDS011;5966;52.402;5.322;2023-02-28T03:44:34;3.67;;;2.40;;
11817;SDS011;5966;52.402;5.322;2023-02-28T03:47:07;4.27;;;2.33;;
11817;SDS011;5966;52.402;5.322;2023-02-28T03:49:39;5.07;;;2.40;;
11817;SDS011;5966;52.402;5.322;2023-02-28T03:52:10;2.73;;;2.00;;
11817;SDS011;5966;52.402;5.322;2023-02-28T03:54:42;5.97;;;2.67;;
11817;SDS011;5966;52.402;5.322;2023-02-28T03:57:17;4.00;;;2.10;;
11817;SDS011;5966;52.402;5.322;2023-02-28T03:59:54;4.43;;;2.50;;
11817;SDS011;5966;52.402;5.322;2023-02-28T04:02:24;4.50;;;2.30;;
11817;SDS011;5966;52.402;5.322;2023-02-28T04:04:52;6.93;;;2.60;;
11817;SDS011;5966;52.402;5.322;2023-02-28T04:07:21;2.90;;;2.20;;
11817;SDS011;5966;52.402;5.322;2023-02-28T04:09:52;3.47;;;2.23;;
11817;SDS011;5966;52.402;5.322;2023-02-28T04:12:21;4.90;;;2.27;;
11817;SDS011;5966;52.402;5.322;2023-02-28T04:14:50;4.37;;;2.23;;
11817;SDS011;5966;52.402;5.322;2023-02-28T04:17:18;5.67;;;2.40;;
11817;SDS011;5966;52.402;5.322;2023-02-28T04:19:46;3.80;;;2.50;;
11817;SDS011;5966;52.402;5.322;2023-02-28T04:22:14;4.00;;;2.87;;
11817;SDS011;5966;52.402;5.322;2023-02-28T04:24:45;3.73;;;2.60;;
11817;SDS011;5966;52.402;5.322;2023-02-28T04:27:26;6.83;;;2.90;;
11817;SDS011;5966;52.402;5.322;2023-02-28T04:30:01;5.60;;;2.93;;
11817;SDS011;5966;52.402;5.322;2023-02-28T04:32:31;3.17;;;2.77;;
11817;SDS011;5966;52.402;5.322;2023-02-28T04:35:05;5.50;;;2.97;;
11817;SDS011;5966;52.402;5.322;2023-02-28T04:37:39;5.77;;;3.40;;
11817;SDS011;5966;52.402;5.322;2023-02-28T04:40:10;4.07;;;3.20;;
11817;SDS011;5966;52.402;5.322;2023-02-28T04:42:40;5.57;;;2.83;;
11817;SDS011;5966;52.402;5.322;2023-02-28T04:45:08;4.17;;;3.40;;
11817;SDS011;5966;52.402;5.322;2023-02-28T04:47:43;4.43;;;3.00;;
11817;SDS011;5966;52.402;5.322;2023-02-28T04:50:15;4.53;;;3.10;;
11817;SDS011;5966;52.402;5.322;2023-02-28T04:52:43;4.10;;;2.83;;
11817;SDS011;5966;52.402;5.322;2023-02-28T04:55:12;4.93;;;3.30;;
11817;SDS011;5966;52.402;5.322;2023-02-28T04:57:42;5.10;;;3.30;;
11817;SDS011;5966;52.402;5.322;2023-02-28T05:00:10;4.07;;;3.40;;
11817;SDS011;5966;52.402;5.322;2023-02-28T05:02:42;6.03;;;3.87;;
11817;SDS011;5966;52.402;5.322;2023-02-28T05:05:10;4.80;;;3.63;;
11817;SDS011;5966;52.402;5.322;2023-02-28T05:07:44;5.67;;;3.97;;
11817;SDS011;5966;52.402;5.322;2023-02-28T05:10:12;5.57;;;4.00;;
11817;SDS011;5966;52.402;5.322;2023-02-28T05:12:41;5.93;;;4.70;;
11817;SDS011;5966;52.402;5.322;2023-02-28T05:15:10;7.67;;;4.87;;
11817;SDS011;5966;52.402;5.322;2023-02-28T05:17:41;10.50;;;5.47;;
11817;SDS011;5966;52.402;5.322;2023-02-28T05:20:09;6.60;;;5.47;;
11817;SDS011;5966;52.402;5.322;2023-02-28T05:22:41;6.67;;;5.57;;
11817;SDS011;5966;52.402;5.322;2023-02-28T05:25:10;8.83;;;6.13;;
11817;SDS011;5966;52.402;5.322;2023-02-28T05:27:45;9.87;;;6.03;;
11817;SDS011;5966;52.402;5.322;2023-02-28T05:30:16;7.53;;;5.90;;
11817;SDS011;5966;52.402;5.322;2023-02-28T05:32:49;7.67;;;6.07;;
11817;SDS011;5966;52.402;5.322;2023-02-28T05:35:19;9.70;;;6.43;;
11817;SDS011;5966;52.402;5.322;2023-02-28T05:37:47;8.83;;;5.90;;
11817;SDS011;5966;52.402;5.322;2023-02-28T05:40:15;7.93;;;5.90;;
11817;SDS011;5966;52.402;5.322;2023-02-28T05:42:45;9.50;;;6.67;;
11817;SDS011;5966;52.402;5.322;2023-02-28T05:45:13;8.77;;;5.83;;
11817;SDS011;5966;52.402;5.322;2023-02-28T05:47:41;6.90;;;5.97;;
11817;SDS011;5966;52.402;5.322;2023-02-28T05:50:10;9.07;;;5.97;;
11817;SDS011;5966;52.402;5.322;2023-02-28T05:52:48;7.97;;;5.33;;
11817;SDS011;5966;52.402;5.322;2023-02-28T05:55:17;6.13;;;4.60;;
11817;SDS011;5966;52.402;5.322;2023-02-28T05:57:48;3.57;;;3.27;;
11817;SDS011;5966;52.402;5.322;2023-02-28T06:00:16;3.63;;;2.53;;
11817;SDS011;5966;52.402;5.322;2023-02-28T06:02:45;3.87;;;2.40;;
11817;SDS011;5966;52.402;5.322;2023-02-28T06:05:14;2.97;;;2.17;;
11817;SDS011;5966;52.402;5.322;2023-02-28T06:07:45;3.70;;;2.13;;
11817;SDS011;5966;52.402;5.322;2023-02-28T06:10:16;2.33;;;2.00;;
11817;SDS011;5966;52.402;5.322;2023-02-28T06:12:49;2.43;;;2.10;;
11817;SDS011;5966;52.402;5.322;2023-02-28T06:15:17;2.80;;;2.10;;
11817;SDS011;5966;52.402;5.322;2023-02-28T06:17:46;2.40;;;1.87;;
11817;SDS011;5966;52.402;5.322;2023-02-28T06:20:15;2.10;;;1.90;;
11817;SDS011;5966;52.402;5.322;2023-02-28T06:22:44;2.33;;;1.73;;
11817;SDS011;5966;52.402;5.322;2023-02-28T06:25:12;2.63;;;2.17;;
11817;SDS011;5966;52.402;5.322;2023-02-28T06:27:42;2.33;;;1.83;;
11817;SDS011;5966;52.402;5.322;2023-02-28T06:30:12;4.53;;;2.03;;
11817;SDS011;5966;52.402;5.322;2023-02-28T06:32:40;2.37;;;1.97;;
11817;SDS011;5966;52.402;5.322;2023-02-28T06:35:08;2.40;;;1.80;;
11817;SDS011;5966;52.402;5.322;2023-02-28T06:37:36;4.00;;;1.90;;
11817;SDS011;5966;52.402;5.322;2023-02-28T06:40:07;1.97;;;1.73;;
11817;SDS011;5966;52.402;5.322;2023-02-28T06:42:39;3.77;;;2.30;;
11817;SDS011;5966;52.402;5.322;2023-02-28T06:45:07;2.30;;;2.03;;
11817;SDS011;5966;52.402;5.322;2023-02-28T06:47:39;3.13;;;1.80;;
11817;SDS011;5966;52.402;5.322;2023-02-28T06:50:10;1.83;;;1.73;;
11817;SDS011;5966;52.402;5.322;2023-02-28T06:52:40;2.50;;;2.00;;
11817;SDS011;5966;52.402;5.322;2023-02-28T06:55:08;2.57;;;2.13;;
11817;SDS011;5966;52.402;5.322;2023-02-28T06:57:36;3.33;;;2.50;;
11817;SDS011;5966;52.402;5.322;2023-02-28T07:00:07;2.87;;;2.20;;
11817;SDS011;5966;52.402;5.322;2023-02-28T07:02:40;4.10;;;2.47;;
11817;SDS011;5966;52.402;5.322;2023-02-28T07:05:08;2.70;;;2.23;;
11817;SDS011;5966;52.402;5.322;2023-02-28T07:07:37;2.43;;;2.10;;
11817;SDS011;5966;52.402;5.322;2023-02-28T07:10:10;3.23;;;2.33;;
11817;SDS011;5966;52.402;5.322;2023-02-28T07:12:45;3.30;;;2.40;;
11817;SDS011;5966;52.402;5.322;2023-02-28T07:15:13;3.13;;;1.93;;
11817;SDS011;5966;52.402;5.322;2023-02-28T07:17:45;2.43;;;2.07;;
11817;SDS011;5966;52.402;5.322;2023-02-28T07:20:17;4.70;;;2.23;;
11817;SDS011;5966;52.402;5.322;2023-02-28T07:22:45;3.87;;;2.57;;
11817;SDS011;5966;52.402;5.322;2023-02-28T07:25:22;3.77;;;2.57;;
11817;SDS011;5966;52.402;5.322;2023-02-28T07:27:52;2.43;;;2.10;;
11817;SDS011;5966;52.402;5.322;2023-02-28T07:30:22;5.70;;;2.50;;
11817;SDS011;5966;52.402;5.322;2023-02-28T07:32:51;2.80;;;2.50;;
11817;SDS011;5966;52.402;5.322;2023-02-28T07:35:22;2.40;;;2.20;;
11817;SDS011;5966;52.402;5.322;2023-02-28T07:37:50;3.67;;;2.13;;
11817;SDS011;5966;52.402;5.322;2023-02-28T07:40:23;4.60;;;2.33;;
11817;SDS011;5966;52.402;5.322;2023-02-28T07:42:58;2.83;;;2.50;;
11817;SDS011;5966;52.402;5.322;2023-02-28T07:45:27;3.60;;;2.70;;
11817;SDS011;5966;52.402;5.322;2023-02-28T07:47:59;2.50;;;2.30;;
11817;SDS011;5966;52.402;5.322;2023-02-28T07:50:29;3.70;;;2.50;;
11817;SDS011;5966;52.402;5.322;2023-02-28T07:52:58;2.60;;;2.40;;
11817;SDS011;5966;52.402;5.322;2023-02-28T07:55:27;4.97;;;2.30;;
11817;SDS011;5966;52.402;5.322;2023-02-28T07:57:57;2.97;;;2.37;;
11817;SDS011;5966;52.402;5.322;2023-02-28T08:00:27;3.77;;;2.60;;
11817;SDS011;5966;52.402;5.322;2023-02-28T08:02:55;3.23;;;2.67;;
11817;SDS011;5966;52.402;5.322;2023-02-28T08:05:27;4.27;;;2.87;;
11817;SDS011;5966;52.402;5.322;2023-02-28T08:07:59;5.47;;;2.80;;
11817;SDS011;5966;52.402;5.322;2023-02-28T08:10:28;3.17;;;2.87;;
11817;SDS011;5966;52.402;5.322;2023-02-28T08:12:56;4.00;;;2.40;;
11817;SDS011;5966;52.402;5.322;2023-02-28T08:15:24;3.50;;;3.00;;
11817;SDS011;5966;52.402;5.322;2023-02-28T08:17:54;4.40;;;2.80;;
11817;SDS011;5966;52.402;5.322;2023-02-28T08:20:23;3.03;;;2.50;;
11817;SDS011;5966;52.402;5.322;2023-02-28T08:22:58;4.10;;;2.47;;
11817;SDS011;5966;52.402;5.322;2023-02-28T08:25:27;3.57;;;2.50;;
11817;SDS011;5966;52.402;5.322;2023-02-28T08:27:55;3.57;;;3.10;;
11817;SDS011;5966;52.402;5.322;2023-02-28T08:30:27;3.47;;;2.70;;
11817;SDS011;5966;52.402;5.322;2023-02-28T08:33:02;2.63;;;2.30;;
11817;SDS011;5966;52.402;5.322;2023-02-28T08:35:38;3.60;;;2.80;;
11817;SDS011;5966;52.402;5.322;2023-02-28T08:38:08;4.27;;;2.73;;
11817;SDS011;5966;52.402;5.322;2023-02-28T08:40:39;2.97;;;2.30;;
11817;SDS011;5966;52.402;5.322;2023-02-28T08:43:10;4.53;;;2.53;;
11817;SDS011;5966;52.402;5.322;2023-02-28T08:45:47;4.07;;;3.00;;
11817;SDS011;5966;52.402;5.322;2023-02-28T08:48:23;3.57;;;3.00;;
11817;SDS011;5966;52.402;5.322;2023-02-28T08:50:55;3.53;;;2.83;;
11817;SDS011;5966;52.402;5.322;2023-02-28T08:53:36;4.03;;;2.80;;
11817;SDS011;5966;52.402;5.322;2023-02-28T08:56:11;3.30;;;2.63;;
11817;SDS011;5966;52.402;5.322;2023-02-28T08:58:43;3.67;;;3.17;;
11817;SDS011;5966;52.402;5.322;2023-02-28T09:01:15;4.20;;;3.20;;
11817;SDS011;5966;52.402;5.322;2023-02-28T09:03:47;4.07;;;3.10;;
11817;SDS011;5966;52.402;5.322;2023-02-28T09:06:19;3.53;;;3.00;;
11817;SDS011;5966;52.402;5.322;2023-02-28T09:08:55;4.10;;;3.00;;
11817;SDS011;5966;52.402;5.322;2023-02-28T09:11:27;3.33;;;2.67;;
11817;SDS011;5966;52.402;5.322;2023-02-28T09:13:57;4.13;;;2.87;;
11817;SDS011;5966;52.402;5.322;2023-02-28T09:16:30;4.27;;;2.50;;
11817;SDS011;5966;52.402;5.322;2023-02-28T09:19:01;4.33;;;2.80;;
11817;SDS011;5966;52.402;5.322;2023-02-28T09:21:33;5.83;;;2.63;;
11817;SDS011;5966;52.402;5.322;2023-02-28T09:24:07;3.67;;;2.83;;
11817;SDS011;5966;52.402;5.322;2023-02-28T09:26:38;5.23;;;2.73;;
11817;SDS011;5966;52.402;5.322;2023-02-28T09:29:28;2.97;;;2.37;;
11817;SDS011;5966;52.402;5.322;2023-02-28T09:31:58;6.93;;;2.80;;
11817;SDS011;5966;52.402;5.322;2023-02-28T09:34:29;2.37;;;2.10;;
11817;SDS011;5966;52.402;5.322;2023-02-28T09:37:03;4.43;;;2.90;;
11817;SDS011;5966;52.402;5.322;2023-02-28T09:39:33;3.90;;;2.43;;
11817;SDS011;5966;52.402;5.322;2023-02-28T09:42:02;2.93;;;2.70;;
11817;SDS011;5966;52.402;5.322;2023-02-28T09:44:35;5.00;;;2.73;;
11817;SDS011;5966;52.402;5.322;2023-02-28T09:47:12;4.67;;;3.07;;
11817;SDS011;5966;52.402;5.322;2023-02-28T09:49:46;3.57;;;2.47;;
11817;SDS011;5966;52.402;5.322;2023-02-28T09:52:15;3.60;;;2.47;;
11817;SDS011;5966;52.402;5.322;2023-02-28T09:54:51;12.93;;;2.70;;
11817;SDS011;5966;52.402;5.322;2023-02-28T09:57:26;3.40;;;2.97;;
11817;SDS011;5966;52.402;5.322;2023-02-28T10:00:06;3.70;;;2.57;;
11817;SDS011;5966;52.402;5.322;2023-02-28T10:05:54;3.20;;;2.30;;
11817;SDS011;5966;52.402;5.322;2023-02-28T10:08:30;2.43;;;2.10;;
11817;SDS011;5966;52.402;5.322;2023-02-28T10:11:09;3.17;;;2.20;;
11817;SDS011;5966;52.402;5.322;2023-02-28T10:13:44;3.97;;;2.33;;
11817;SDS011;5966;52.402;5.322;2023-02-28T10:16:20;3.10;;;2.40;;
11817;SDS011;5966;52.402;5.322;2023-02-28T10:18:54;2.80;;;2.60;;
11817;SDS011;5966;52.402;5.322;2023-02-28T10:21:30;2.50;;;2.03;;
11817;SDS011;5966;52.402;5.322;2023-02-28T10:24:19;5.23;;;2.17;;
11817;SDS011;5966;52.402;5.322;2023-02-28T10:26:51;3.90;;;2.40;;
11817;SDS011;5966;52.402;5.322;2023-02-28T10:29:26;3.03;;;2.30;;
11817;SDS011;5966;52.402;5.322;2023-02-28T10:31:58;3.43;;;2.10;;
11817;SDS011;5966;52.402;5.322;2023-02-28T10:34:31;2.90;;;2.00;;
11817;SDS011;5966;52.402;5.322;2023-02-28T10:37:00;2.80;;;2.03;;
11817;SDS011;5966;52.402;5.322;2023-02-28T10:39:35;2.43;;;2.23;;
11817;SDS011;5966;52.402;5.322;2023-02-28T10:42:19;1.97;;;1.80;;
11817;SDS011;5966;52.402;5.322;2023-02-28T10:45:05;2.13;;;1.93;;
11817;SDS011;5966;52.402;5.322;2023-02-28T10:47:40;2.23;;;2.03;;
11817;SDS011;5966;52.402;5.322;2023-02-28T10:50:36;2.20;;;2.00;;
11817;SDS011;5966;52.402;5.322;2023-02-28T10:53:17;2.07;;;1.97;;
11817;SDS011;5966;52.402;5.322;2023-02-28T10:56:31;2.80;;;2.10;;
11817;SDS011;5966;52.402;5.322;2023-02-28T10:59:02;2.13;;;1.80;;
11817;SDS011;5966;52.402;5.322;2023-02-28T11:01:50;3.03;;;1.80;;
11817;SDS011;5966;52.402;5.322;2023-02-28T11:04:31;2.20;;;2.03;;
11817;SDS011;5966;52.402;5.322;2023-02-28T11:07:16;2.20;;;1.97;;
11817;SDS011;5966;52.402;5.322;2023-02-28T11:09:53;2.33;;;1.80;;
11817;SDS011;5966;52.402;5.322;2023-02-28T11:12:28;2.37;;;2.03;;
11817;SDS011;5966;52.402;5.322;2023-02-28T11:15:21;3.47;;;1.80;;
11817;SDS011;5966;52.402;5.322;2023-02-28T11:17:53;3.30;;;2.03;;
11817;SDS011;5966;52.402;5.322;2023-02-28T11:20:26;1.93;;;1.83;;
11817;SDS011;5966;52.402;5.322;2023-02-28T11:22:57;1.83;;;1.73;;
11817;SDS011;5966;52.402;5.322;2023-02-28T11:25:29;2.10;;;1.90;;
11817;SDS011;5966;52.402;5.322;2023-02-28T11:28:01;3.20;;;1.77;;
11817;SDS011;5966;52.402;5.322;2023-02-28T11:30:39;1.77;;;1.67;;
11817;SDS011;5966;52.402;5.322;2023-02-28T11:33:26;2.43;;;2.03;;
11817;SDS011;5966;52.402;5.322;2023-02-28T11:35:58;2.97;;;1.80;;
11817;SDS011;5966;52.402;5.322;2023-02-28T11:38:31;2.27;;;1.80;;
11817;SDS011;5966;52.402;5.322;2023-02-28T11:41:05;3.57;;;2.00;;
11817;SDS011;5966;52.402;5.322;2023-02-28T11:43:55;3.67;;;1.90;;
11817;SDS011;5966;52.402;5.322;2023-02-28T11:46:40;2.83;;;1.90;;
11817;SDS011;5966;52.402;5.322;2023-02-28T11:49:22;3.30;;;1.90;;
11817;SDS011;5966;52.402;5.322;2023-02-28T11:52:04;3.13;;;1.80;;
11817;SDS011;5966;52.402;5.322;2023-02-28T11:54:47;1.70;;;1.60;;
11817;SDS011;5966;52.402;5.322;2023-02-28T11:57:30;2.17;;;1.63;;
11817;SDS011;5966;52.402;5.322;2023-02-28T12:00:08;1.73;;;1.63;;
11817;SDS011;5966;52.402;5.322;2023-02-28T12:02:56;2.47;;;1.70;;
11817;SDS011;5966;52.402;5.322;2023-02-28T12:05:33;2.30;;;1.63;;
11817;SDS011;5966;52.402;5.322;2023-02-28T12:08:09;1.83;;;1.73;;
11817;SDS011;5966;52.402;5.322;2023-02-28T12:10:52;2.63;;;2.00;;
11817;SDS011;5966;52.402;5.322;2023-02-28T12:13:33;1.63;;;1.53;;
11817;SDS011;5966;52.402;5.322;2023-02-28T12:16:37;5.20;;;1.57;;
11817;SDS011;5966;52.402;5.322;2023-02-28T12:19:21;1.30;;;1.20;;
11817;SDS011;5966;52.402;5.322;2023-02-28T12:22:02;1.50;;;1.40;;
11817;SDS011;5966;52.402;5.322;2023-02-28T12:25:01;1.40;;;1.30;;
11817;SDS011;5966;52.402;5.322;2023-02-28T12:28:02;1.63;;;1.30;;
11817;SDS011;5966;52.402;5.322;2023-02-28T12:30:50;2.30;;;1.20;;
11817;SDS011;5966;52.402;5.322;2023-02-28T12:33:31;1.93;;;1.50;;
11817;SDS011;5966;52.402;5.322;2023-02-28T12:36:11;1.37;;;1.10;;
11817;SDS011;5966;52.402;5.322;2023-02-28T12:39:00;1.53;;;1.43;;
11817;SDS011;5966;52.402;5.322;2023-02-28T12:41:34;1.00;;;1.00;;
11817;SDS011;5966;52.402;5.322;2023-02-28T12:44:16;1.23;;;1.13;;
11817;SDS011;5966;52.402;5.322;2023-02-28T12:46:53;2.20;;;1.30;;
11817;SDS011;5966;52.402;5.322;2023-02-28T12:49:54;1.50;;;1.40;;
11817;SDS011;5966;52.402;5.322;2023-02-28T12:52:37;1.77;;;1.67;;
11817;SDS011;5966;52.402;5.322;2023-02-28T12:55:13;1.77;;;1.47;;
11817;SDS011;5966;52.402;5.322;2023-02-28T12:57:48;2.67;;;1.63;;
11817;SDS011;5966;52.402;5.322;2023-02-28T13:00:24;1.30;;;1.20;;
11817;SDS011;5966;52.402;5.322;2023-02-28T13:03:06;1.83;;;1.30;;
11817;SDS011;5966;52.402;5.322;2023-02-28T13:06:05;1.60;;;1.40;;
11817;SDS011;5966;52.402;5.322;2023-02-28T13:11:50;2.60;;;1.40;;
11817;SDS011;5966;52.402;5.322;2023-02-28T13:14:28;1.20;;;1.10;;
11817;SDS011;5966;52.402;5.322;2023-02-28T13:17:01;1.40;;;1.17;;
11817;SDS011;5966;52.402;5.322;2023-02-28T13:19:40;2.17;;;1.50;;
11817;SDS011;5966;52.402;5.322;2023-02-28T13:22:18;2.10;;;1.33;;
11817;SDS011;5966;52.402;5.322;2023-02-28T13:24:50;1.57;;;1.30;;
11817;SDS011;5966;52.402;5.322;2023-02-28T13:27:25;1.43;;;1.30;;
11817;SDS011;5966;52.402;5.322;2023-02-28T13:33:21;1.37;;;1.27;;
11817;SDS011;5966;52.402;5.322;2023-02-28T13:36:08;1.60;;;1.50;;
11817;SDS011;5966;52.402;5.322;2023-02-28T13:38:55;1.83;;;1.43;;
11817;SDS011;5966;52.402;5.322;2023-02-28T13:41:41;2.60;;;1.60;;
11817;SDS011;5966;52.402;5.322;2023-02-28T13:44:17;2.00;;;1.73;;
11817;SDS011;5966;52.402;5.322;2023-02-28T13:49:49;2.77;;;2.30;;
11817;SDS011;5966;52.402;5.322;2023-02-28T13:52:19;2.40;;;2.20;;
11817;SDS011;5966;52.402;5.322;2023-02-28T13:54:52;2.40;;;2.10;;
11817;SDS011;5966;52.402;5.322;2023-02-28T13:57:48;2.80;;;2.20;;
11817;SDS011;5966;52.402;5.322;2023-02-28T14:00:35;2.77;;;2.20;;
11817;SDS011;5966;52.402;5.322;2023-02-28T14:03:30;2.00;;;1.70;;
11817;SDS011;5966;52.402;5.322;2023-02-28T14:06:15;2.07;;;1.53;;
11817;SDS011;5966;52.402;5.322;2023-02-28T14:08:52;4.30;;;2.00;;
11817;SDS011;5966;52.402;5.322;2023-02-28T14:11:25;2.77;;;2.20;;
11817;SDS011;5966;52.402;5.322;2023-02-28T14:14:00;2.60;;;1.70;;
11817;SDS011;5966;52.402;5.322;2023-02-28T14:16:38;1.67;;;1.43;;
11817;SDS011;5966;52.402;5.322;2023-02-28T14:19:12;2.43;;;1.50;;
11817;SDS011;5966;52.402;5.322;2023-02-28T14:21:47;1.30;;;1.20;;
11817;SDS011;5966;52.402;5.322;2023-02-28T14:24:48;2.00;;;1.60;;
11817;SDS011;5966;52.402;5.322;2023-02-28T14:27:47;2.50;;;2.00;;
11817;SDS011;5966;52.402;5.322;2023-02-28T14:33:14;1.43;;;1.30;;
11817;SDS011;5966;52.402;5.322;2023-02-28T14:36:00;2.43;;;1.33;;
11817;SDS011;5966;52.402;5.322;2023-02-28T14:38:36;2.80;;;1.60;;
11817;SDS011;5966;52.402;5.322;2023-02-28T14:41:14;2.20;;;1.37;;
11817;SDS011;5966;52.402;5.322;2023-02-28T14:43:52;3.57;;;1.30;;
11817;SDS011;5966;52.402;5.322;2023-02-28T14:46:24;1.50;;;1.40;;
11817;SDS011;5966;52.402;5.322;2023-02-28T14:48:56;2.17;;;1.37;;
11817;SDS011;5966;52.402;5.322;2023-02-28T14:51:24;1.70;;;1.60;;
11817;SDS011;5966;52.402;5.322;2023-02-28T14:53:56;1.67;;;1.57;;
11817;SDS011;5966;52.402;5.322;2023-02-28T14:56:26;2.17;;;1.50;;
11817;SDS011;5966;52.402;5.322;2023-02-28T14:58:57;1.47;;;1.33;;
11817;SDS011;5966;52.402;5.322;2023-02-28T15:01:26;1.33;;;1.23;;
11817;SDS011;5966;52.402;5.322;2023-02-28T15:03:59;2.13;;;1.47;;
11817;SDS011;5966;52.402;5.322;2023-02-28T15:06:39;1.60;;;1.50;;
11817;SDS011;5966;52.402;5.322;2023-02-28T15:11:59;3.33;;;1.70;;
11817;SDS011;5966;52.402;5.322;2023-02-28T15:14:27;1.20;;;1.10;;
11817;SDS011;5966;52.402;5.322;2023-02-28T15:17:01;3.63;;;1.57;;
11817;SDS011;5966;52.402;5.322;2023-02-28T15:19:39;2.50;;;1.60;;
11817;SDS011;5966;52.402;5.322;2023-02-28T15:22:20;2.13;;;1.70;;
11817;SDS011;5966;52.402;5.322;2023-02-28T15:24:57;1.43;;;1.33;;
11817;SDS011;5966;52.402;5.322;2023-02-28T15:27:27;2.37;;;1.43;;
11817;SDS011;5966;52.402;5.322;2023-02-28T15:29:59;1.50;;;1.40;;
11817;SDS011;5966;52.402;5.322;2023-02-28T15:32:37;2.30;;;1.57;;
11817;SDS011;5966;52.402;5.322;2023-02-28T15:35:19;2.57;;;1.40;;
11817;SDS011;5966;52.402;5.322;2023-02-28T15:37:54;1.80;;;1.70;;
11817;SDS011;5966;52.402;5.322;2023-02-28T15:40:26;3.63;;;1.70;;
11817;SDS011;5966;52.402;5.322;2023-02-28T15:42:58;1.80;;;1.57;;
11817;SDS011;5966;52.402;5.322;2023-02-28T15:45:32;1.50;;;1.40;;
11817;SDS011;5966;52.402;5.322;2023-02-28T15:48:10;2.67;;;1.77;;
11817;SDS011;5966;52.402;5.322;2023-02-28T15:50:48;2.33;;;2.10;;
11817;SDS011;5966;52.402;5.322;2023-02-28T15:53:21;2.57;;;1.90;;
11817;SDS011;5966;52.402;5.322;2023-02-28T15:55:59;4.03;;;2.43;;
11817;SDS011;5966;52.402;5.322;2023-02-28T15:58:35;3.03;;;2.13;;
11817;SDS011;5966;52.402;5.322;2023-02-28T16:01:16;3.93;;;2.30;;
11817;SDS011;5966;52.402;5.322;2023-02-28T16:03:53;2.50;;;2.17;;
11817;SDS011;5966;52.402;5.322;2023-02-28T16:06:37;2.73;;;2.30;;
11817;SDS011;5966;52.402;5.322;2023-02-28T16:09:10;2.30;;;2.10;;
11817;SDS011;5966;52.402;5.322;2023-02-28T16:11:51;2.90;;;2.40;;
11817;SDS011;5966;52.402;5.322;2023-02-28T16:14:27;2.50;;;2.23;;
11817;SDS011;5966;52.402;5.322;2023-02-28T16:17:06;4.23;;;2.50;;
11817;SDS011;5966;52.402;5.322;2023-02-28T16:19:48;3.57;;;2.50;;